Airfield :
LOGIN :

Register | Disclaimer

   EN    FR    IT 

 










Legend :    VFR   Marginal VFR   IFR   Intensive IFR   Very Intensive IFR
Visi :
Ceiling :
>= 8 km
>= 3000ft
5 to 8 km
1000 to 3000 ft
1500m to 5 km
500 to 1000 ft
800 to 1500m
200 to 500 ft
< 800m
< 200 ft
Symbols :   Thunderstorms  Fog  Heavy snow  Heavy precipitations  Wind > 20 kt
SIGMETs :     Misc.  Thunderstorms  Icing  Turbulence  Mountain Waves  Volcanic Ashes






- Airport Elevation : 13 ft
- IATA code : CEQ


LFMD - Cannes Mandelieu

CURRENT METAR :
  • 222230Z AUTO VRB02KT 9999 FEW068/// OVC160/// ///CB 09/08 Q0991

EXPIRED METARs :
  • 222200Z AUTO VRB03KT 9999 -RA OVC060/// ///CB 10/07 Q0991
  • 222130Z AUTO VRB02KT 9999 -RA BKN060/// OVC072/// ///TCU 09/08 Q0990
  • 222100Z AUTO VRB02KT 9999 -RA FEW043/// OVC052/// ///CB 09/08 Q0990
  • 222030Z AUTO VRB02KT 9999 RA OVC056/// ///TCU 10/07 Q0990
  • 222000Z AUTO 29008KT 260V330 9999 -RA OVC054/// ///TCU 10/07 Q0989

TAF AMD TAF LFMD
Valid from the 22 at 15:00 until the 23 at 15:00 UTC


221551Z 2215/2315 21010KT 9999 BKN020 BKN075
TEMPO 2215/2220 VRB15G30KT 2000 RA BKN007 SCT020TCU
PROB30
TEMPO 2215/2220 TSRA BKN006 SCT020CB
BECMG 2217/2219 27015G25KT
BECMG 2220/2222 CAVOK
TEMPO 2300/2315 28020G35KT
ATIS : +33 4 93 48 73 23



MET'MAP, your aeronautical weather chart ! - Copyright ORBIFLY December 2007 - Disclaimer

ORBIFLY MET'MAP TEAM :

Programming & Development : Alexandra Zaïnal
Concept & original design : Baudouin d'Aumeries
Assistance for programming : Marc-Olivier Méhu
Technical & hardware support : Manuel Goepfert

Contact : metmap@orbifly.com




SOURCES & CREDITS :

   NOAA